createdAt,value
2023-03-06T00:01:48.901Z,60.10
2023-03-06T00:04:51.532Z,60.93
2023-03-06T00:07:54.061Z,60.49
2023-03-06T00:10:57.352Z,60.24
2023-03-06T00:13:59.774Z,60.10
2023-03-06T00:17:02.220Z,60.46
2023-03-06T00:20:07.114Z,60.30
2023-03-06T00:23:10.263Z,60.54
2023-03-06T00:26:12.837Z,60.84
2023-03-06T00:29:17.624Z,60.83
2023-03-06T00:32:20.820Z,60.66
2023-03-06T00:35:23.438Z,60.91
2023-03-06T00:38:28.543Z,61.08
2023-03-06T00:41:32.015Z,60.75
2023-03-06T00:44:34.450Z,60.47
2023-03-06T00:47:37.867Z,60.42
2023-03-06T00:50:40.543Z,60.48
2023-03-06T00:53:43.048Z,60.26
2023-03-06T00:56:45.529Z,60.57
2023-03-06T00:59:48.239Z,60.36
2023-03-06T01:02:50.787Z,60.47
2023-03-06T01:05:53.475Z,60.16
2023-03-06T01:09:06.353Z,59.34
2023-03-06T01:12:09.315Z,58.58
2023-03-06T01:15:13.797Z,59.07
2023-03-06T01:18:16.260Z,59.83
2023-03-06T01:21:18.832Z,59.56
2023-03-06T01:24:21.306Z,59.64
2023-03-06T01:27:23.783Z,59.98
2023-03-06T01:30:27.460Z,59.86
2023-03-06T01:33:30.248Z,60.86
2023-03-06T01:36:32.910Z,60.80
2023-03-06T01:39:35.481Z,61.02
2023-03-06T01:42:38.172Z,61.56
2023-03-06T01:45:41.291Z,61.74
2023-03-06T01:48:45.012Z,62.18
2023-03-06T01:51:55.105Z,62.16
2023-03-06T01:55:02.866Z,62.26
2023-03-06T01:58:12.310Z,62.18
2023-03-06T02:01:16.049Z,62.10
2023-03-06T02:04:18.835Z,62.16
2023-03-06T02:07:21.659Z,61.99
2023-03-06T02:10:25.111Z,61.72
2023-03-06T02:13:29.347Z,61.75
2023-03-06T02:16:33.106Z,62.04
2023-03-06T02:19:50.296Z,61.57
2023-03-06T02:23:04.213Z,61.49
2023-03-06T02:26:09.404Z,61.40
2023-03-06T02:29:11.903Z,61.82
2023-03-06T02:32:14.485Z,61.97
2023-03-06T02:35:23.560Z,61.79
2023-03-06T02:38:37.753Z,61.29
2023-03-06T02:41:41.173Z,61.38
2023-03-06T02:44:44.272Z,61.42
2023-03-06T02:47:47.560Z,61.72
2023-03-06T02:50:50.227Z,61.29
2023-03-06T02:53:53.567Z,61.07
2023-03-06T02:56:56.945Z,61.05
2023-03-06T02:59:59.560Z,60.41
2023-03-06T03:03:02.572Z,60.27
2023-03-06T03:06:07.823Z,60.59
2023-03-06T03:09:12.016Z,60.11
2023-03-06T03:12:14.562Z,59.65
2023-03-06T03:15:17.656Z,59.86
2023-03-06T03:18:20.130Z,59.55
2023-03-06T03:21:23.642Z,58.87
2023-03-06T03:24:26.833Z,59.85
2023-03-06T03:27:30.402Z,59.72
2023-03-06T03:30:32.951Z,58.65
2023-03-06T03:33:36.341Z,58.18
2023-03-06T03:36:39.668Z,58.50
2023-03-06T03:39:44.274Z,59.83
2023-03-06T03:42:47.379Z,59.96
2023-03-06T03:45:49.941Z,60.91
2023-03-06T03:48:52.920Z,61.25
2023-03-06T03:51:55.775Z,61.39
2023-03-06T03:55:00.607Z,61.46
2023-03-06T03:58:05.614Z,61.63
2023-03-06T04:01:08.572Z,61.37
2023-03-06T04:04:12.315Z,61.90
2023-03-06T04:07:15.793Z,61.22
2023-03-06T04:10:18.272Z,61.21
2023-03-06T04:13:22.097Z,61.69
2023-03-06T04:16:28.057Z,60.42
2023-03-06T04:19:31.490Z,58.39
2023-03-06T04:22:34.559Z,58.02
2023-03-06T04:25:37.061Z,58.39
2023-03-06T04:28:42.444Z,58.13
2023-03-06T04:31:45.174Z,58.01
2023-03-06T04:34:47.841Z,58.42
2023-03-06T04:37:50.358Z,58.99
2023-03-06T04:40:54.900Z,59.14
2023-03-06T04:43:57.537Z,59.83
2023-03-06T04:47:00.002Z,60.20
2023-03-06T04:50:02.784Z,60.60
2023-03-06T04:53:05.437Z,60.59
2023-03-06T04:56:08.165Z,61.35
2023-03-06T04:59:10.696Z,62.17
2023-03-06T05:02:14.309Z,62.48
2023-03-06T05:05:18.008Z,63.33
2023-03-06T05:08:20.513Z,64.34
2023-03-06T05:11:23.239Z,63.55
2023-03-06T05:14:25.675Z,63.94
2023-03-06T05:17:28.290Z,65.09
2023-03-06T05:20:30.827Z,64.28
2023-03-06T05:23:36.262Z,64.26
2023-03-06T05:26:38.734Z,65.55
2023-03-06T05:29:41.294Z,65.85
2023-03-06T05:32:44.331Z,66.59
2023-03-06T05:35:48.211Z,66.63
2023-03-06T05:38:50.665Z,66.82
2023-03-06T05:41:53.254Z,67.94
2023-03-06T05:44:55.691Z,68.30
2023-03-06T05:47:59.032Z,69.43
2023-03-06T05:51:02.615Z,70.40
2023-03-06T05:54:05.062Z,71.12
2023-03-06T05:57:07.647Z,71.73
2023-03-06T06:00:11.249Z,71.83
2023-03-06T06:03:16.503Z,71.94
2023-03-06T06:06:18.924Z,73.25
2023-03-06T06:09:22.493Z,74.08
2023-03-06T06:12:26.741Z,72.33
2023-03-06T06:15:29.283Z,72.67
2023-03-06T06:18:31.792Z,71.73
2023-03-06T06:21:34.269Z,72.56
2023-03-06T06:24:37.023Z,73.51
2023-03-06T06:27:39.561Z,73.03
2023-03-06T06:30:42.026Z,72.68
2023-03-06T06:33:45.404Z,73.07
2023-03-06T06:36:48.305Z,73.71
2023-03-06T06:39:50.843Z,73.30
2023-03-06T06:42:53.366Z,73.11
2023-03-06T06:46:19.565Z,73.15
2023-03-06T06:49:21.338Z,73.34
2023-03-06T06:52:25.133Z,73.00
2023-03-06T06:55:27.907Z,73.82
2023-03-06T06:58:30.712Z,72.32
2023-03-06T07:01:33.187Z,72.20
2023-03-06T07:04:36.499Z,72.22
2023-03-06T07:07:39.131Z,72.84
2023-03-06T07:10:41.645Z,72.56
2023-03-06T07:13:46.032Z,71.98
2023-03-06T07:16:48.554Z,71.33
2023-03-06T07:19:51.115Z,70.93
2023-03-06T07:22:53.676Z,71.52
2023-03-06T07:25:57.580Z,71.59
2023-03-06T07:29:00.329Z,72.83
2023-03-06T07:32:02.952Z,71.49
2023-03-06T07:35:19.424Z,71.39
2023-03-06T07:38:22.745Z,71.73
2023-03-06T07:41:25.533Z,71.88
2023-03-06T07:44:28.486Z,72.22
2023-03-06T07:47:31.190Z,72.20
2023-03-06T07:50:35.095Z,72.14
2023-03-06T07:53:37.828Z,71.68
2023-03-06T07:56:40.297Z,71.43
2023-03-06T07:59:43.015Z,71.79
2023-03-06T08:02:45.793Z,70.57
2023-03-06T08:05:48.500Z,70.13
2023-03-06T08:08:52.576Z,69.80
2023-03-06T08:11:55.432Z,70.55
2023-03-06T08:14:57.901Z,70.25
2023-03-06T08:18:00.422Z,70.57
2023-03-06T08:21:09.275Z,70.87
2023-03-06T08:24:13.262Z,70.54
2023-03-06T08:27:15.703Z,70.87
2023-03-06T08:30:19.620Z,70.60
2023-03-06T08:33:22.835Z,70.96
2023-03-06T08:36:25.911Z,70.95
2023-03-06T08:39:28.339Z,70.81
2023-03-06T08:42:31.947Z,70.25
2023-03-06T08:45:34.486Z,71.56
2023-03-06T08:48:37.349Z,72.43
2023-03-06T08:51:39.894Z,70.22
2023-03-06T08:54:42.307Z,70.74
2023-03-06T08:57:45.465Z,70.00
2023-03-06T09:00:48.179Z,70.19
2023-03-06T09:03:53.837Z,71.63
2023-03-06T09:06:56.460Z,71.43
2023-03-06T09:09:59.434Z,69.74
2023-03-06T09:13:02.157Z,69.25
2023-03-06T09:16:05.206Z,68.05
2023-03-06T09:19:08.018Z,67.57
2023-03-06T09:22:10.752Z,66.63
2023-03-06T09:25:14.863Z,64.49
2023-03-06T09:28:17.966Z,63.37
2023-03-06T09:31:20.809Z,62.40
2023-03-06T09:34:23.377Z,61.58
2023-03-06T09:37:26.103Z,61.00
2023-03-06T09:41:01.952Z,62.22
2023-03-06T09:44:08.789Z,63.13
2023-03-06T09:47:27.641Z,63.48
2023-03-06T09:50:43.783Z,62.25
2023-03-06T09:54:09.996Z,62.63
2023-03-06T09:57:21.973Z,62.32
2023-03-06T10:00:33.704Z,63.03
2023-03-06T10:03:53.975Z,63.23
2023-03-06T10:07:29.946Z,62.84
2023-03-06T10:10:45.884Z,62.14
2023-03-06T10:13:52.959Z,61.00
2023-03-06T10:16:56.177Z,60.18
2023-03-06T10:19:59.170Z,61.28
2023-03-06T10:23:24.944Z,59.48
2023-03-06T10:26:37.862Z,59.83
2023-03-06T10:30:01.262Z,61.42
2023-03-06T10:33:10.104Z,61.36
2023-03-06T10:36:15.829Z,61.21
2023-03-06T10:39:21.953Z,60.02
2023-03-06T10:42:28.837Z,60.32
2023-03-06T10:45:43.763Z,59.85
2023-03-06T10:48:58.580Z,59.61
2023-03-06T10:52:04.276Z,60.20
2023-03-06T10:55:29.595Z,59.16
2023-03-06T10:58:36.669Z,59.95
2023-03-06T11:01:47.349Z,61.31
2023-03-06T11:04:53.389Z,60.15
2023-03-06T11:08:00.500Z,60.95
2023-03-06T11:11:05.582Z,61.82
2023-03-06T11:14:16.871Z,60.88
2023-03-06T11:17:32.043Z,60.69
2023-03-06T11:20:55.547Z,60.66
2023-03-06T11:24:04.257Z,60.91
2023-03-06T11:27:38.200Z,59.96
2023-03-06T11:30:49.535Z,59.84
2023-03-06T11:33:52.230Z,58.39
2023-03-06T11:36:58.478Z,60.51
2023-03-06T11:40:06.815Z,60.09
2023-03-06T11:43:27.507Z,60.25
2023-03-06T11:46:40.000Z,59.75
2023-03-06T11:50:10.011Z,60.75
2023-03-06T11:53:18.604Z,59.71
2023-03-06T11:56:35.690Z,60.11
2023-03-06T12:00:22.415Z,61.72
2023-03-06T12:03:39.324Z,61.12
2023-03-06T12:06:47.395Z,60.93
2023-03-06T12:10:02.814Z,60.52
2023-03-06T12:13:20.730Z,60.18
2023-03-06T12:16:46.948Z,60.61
2023-03-06T12:20:07.280Z,61.29
2023-03-06T12:23:23.388Z,63.11
2023-03-06T12:26:47.896Z,62.73
2023-03-06T12:30:18.408Z,63.34
2023-03-06T12:33:24.511Z,63.03
2023-03-06T12:36:46.455Z,63.49
2023-03-06T12:40:18.947Z,64.26
2023-03-06T12:43:30.654Z,64.49
2023-03-06T12:46:39.723Z,64.59
2023-03-06T12:49:48.560Z,65.23
2023-03-06T12:52:53.497Z,65.26
2023-03-06T12:55:58.521Z,65.66
2023-03-06T12:59:02.571Z,64.11
2023-03-06T13:02:34.226Z,63.96
2023-03-06T13:06:30.951Z,63.41
2023-03-06T13:10:02.793Z,63.69
2023-03-06T13:13:30.674Z,63.22
2023-03-06T13:16:34.583Z,63.19
2023-03-06T13:19:37.656Z,63.02
2023-03-06T13:22:43.009Z,62.78
2023-03-06T13:25:50.274Z,63.03
2023-03-06T13:28:55.496Z,62.66
2023-03-06T13:32:01.183Z,62.29
2023-03-06T13:35:32.578Z,62.47
2023-03-06T13:38:41.327Z,62.01
2023-03-06T13:41:56.090Z,61.97
2023-03-06T13:45:06.418Z,61.92
2023-03-06T13:48:45.560Z,62.63
2023-03-06T13:52:10.688Z,62.01
2023-03-06T13:55:45.244Z,62.02
2023-03-06T13:58:53.564Z,61.73
2023-03-06T14:02:37.098Z,63.10
2023-03-06T14:05:45.805Z,63.48
2023-03-06T14:08:48.577Z,63.29
2023-03-06T14:11:57.742Z,63.73
2023-03-06T14:15:12.243Z,64.04
2023-03-06T14:18:23.978Z,63.29
2023-03-06T14:21:40.166Z,62.91
2023-03-06T14:24:52.414Z,62.58
2023-03-06T14:27:56.456Z,63.05
2023-03-06T14:31:05.193Z,62.81
2023-03-06T14:34:15.499Z,63.29
2023-03-06T14:37:25.300Z,63.32
2023-03-06T14:40:32.214Z,63.52
2023-03-06T14:43:34.757Z,63.82
2023-03-06T14:46:37.716Z,63.56
2023-03-06T14:49:40.188Z,63.72
2023-03-06T14:52:43.232Z,63.63
2023-03-06T14:55:53.995Z,63.92
2023-03-06T14:58:59.372Z,63.32
2023-03-06T15:02:05.226Z,63.19
2023-03-06T15:05:19.902Z,63.37
2023-03-06T15:08:28.942Z,63.34
2023-03-06T15:11:51.031Z,63.33
2023-03-06T15:15:03.717Z,63.53
2023-03-06T15:18:28.635Z,63.30
2023-03-06T15:21:38.873Z,63.55
2023-03-06T15:24:41.353Z,64.11
2023-03-06T15:27:53.632Z,64.42
2023-03-06T15:31:02.300Z,64.42
2023-03-06T15:34:07.826Z,64.80
2023-03-06T15:37:27.671Z,64.68
2023-03-06T15:40:31.908Z,64.83
2023-03-06T15:43:39.408Z,64.79
2023-03-06T15:46:42.305Z,64.57
2023-03-06T15:49:44.839Z,65.05
2023-03-06T15:52:48.092Z,65.35
2023-03-06T15:55:52.042Z,65.00
2023-03-06T15:58:56.281Z,64.94
2023-03-06T16:02:20.249Z,65.29
2023-03-06T16:05:23.605Z,65.42
2023-03-06T16:08:26.431Z,65.85
2023-03-06T16:11:43.336Z,66.00
2023-03-06T16:14:47.914Z,65.72
2023-03-06T16:17:50.342Z,65.97
2023-03-06T16:20:52.946Z,65.70
2023-03-06T16:23:55.711Z,66.08
2023-03-06T16:27:01.270Z,66.43
2023-03-06T16:30:04.954Z,66.88
2023-03-06T16:33:10.557Z,66.18
2023-03-06T16:36:16.562Z,65.98
2023-03-06T16:39:24.040Z,66.61
2023-03-06T16:42:26.565Z,66.46
2023-03-06T16:45:29.374Z,66.75
2023-03-06T16:48:32.851Z,66.74
2023-03-06T16:51:37.645Z,66.62
2023-03-06T16:54:40.049Z,66.99
2023-03-06T16:57:42.538Z,66.70
2023-03-06T17:00:45.930Z,66.93
2023-03-06T17:03:48.519Z,66.86
2023-03-06T17:06:52.873Z,67.11
2023-03-06T17:09:55.620Z,67.10
2023-03-06T17:12:58.173Z,67.23
2023-03-06T17:16:02.090Z,67.79
2023-03-06T17:19:05.006Z,67.85
2023-03-06T17:22:07.654Z,68.13
2023-03-06T17:25:10.678Z,68.31
2023-03-06T17:28:13.477Z,68.37
2023-03-06T17:31:22.252Z,68.35
2023-03-06T17:34:25.211Z,68.91
2023-03-06T17:37:27.956Z,68.38
2023-03-06T17:40:30.716Z,68.99
2023-03-06T17:43:34.150Z,68.98
2023-03-06T17:46:36.882Z,69.16
2023-03-06T17:49:40.298Z,69.43
2023-03-06T17:52:44.041Z,69.48
2023-03-06T17:55:46.604Z,69.11
2023-03-06T17:58:49.156Z,69.64
2023-03-06T18:01:51.943Z,69.82
2023-03-06T18:04:56.416Z,69.54
2023-03-06T18:07:59.059Z,69.97
2023-03-06T18:11:06.240Z,70.16
2023-03-06T18:14:09.600Z,69.71
2023-03-06T18:17:12.099Z,69.75
2023-03-06T18:20:14.862Z,70.07
2023-03-06T18:23:18.021Z,69.92
2023-03-06T18:26:23.560Z,69.81
2023-03-06T18:29:26.294Z,69.67
2023-03-06T18:32:29.265Z,69.50
2023-03-06T18:35:33.456Z,69.93
2023-03-06T18:38:37.860Z,70.62
2023-03-06T18:41:41.469Z,72.05
2023-03-06T18:44:48.184Z,72.70
2023-03-06T18:47:50.851Z,72.00
2023-03-06T18:50:53.828Z,72.77
2023-03-06T18:53:58.193Z,73.85
2023-03-06T18:57:01.091Z,73.64
2023-03-06T19:00:06.532Z,74.20
2023-03-06T19:03:11.074Z,73.55
2023-03-06T19:06:16.949Z,73.36
2023-03-06T19:09:19.618Z,74.64
2023-03-06T19:12:22.372Z,74.41
2023-03-06T19:15:25.136Z,75.64
2023-03-06T19:18:29.226Z,76.10
2023-03-06T19:21:31.990Z,76.12
2023-03-06T19:24:35.422Z,76.45
2023-03-06T19:27:39.194Z,77.14
2023-03-06T19:30:41.889Z,78.04
2023-03-06T19:33:45.052Z,78.05
2023-03-06T19:36:50.165Z,77.41
2023-03-06T19:39:52.592Z,77.31
2023-03-06T19:42:55.703Z,77.55
2023-03-06T19:45:58.505Z,78.07
2023-03-06T19:49:09.658Z,78.15
2023-03-06T19:52:12.699Z,77.84
2023-03-06T19:55:15.733Z,77.86
2023-03-06T19:58:18.401Z,77.87
2023-03-06T20:01:23.132Z,77.98
2023-03-06T20:04:26.306Z,78.93
2023-03-06T20:07:29.057Z,79.05
2023-03-06T20:10:31.473Z,79.32
2023-03-06T20:13:34.160Z,79.45
2023-03-06T20:16:37.353Z,79.41
2023-03-06T20:19:40.230Z,79.62
2023-03-06T20:22:43.336Z,80.15
2023-03-06T20:25:46.550Z,80.01
2023-03-06T20:28:49.978Z,80.05
2023-03-06T20:31:54.930Z,79.84
2023-03-06T20:34:57.879Z,79.35
2023-03-06T20:38:00.765Z,79.16
2023-03-06T20:41:03.618Z,78.89
2023-03-06T20:44:08.467Z,79.32
2023-03-06T20:47:11.243Z,79.37
2023-03-06T20:50:15.285Z,79.31
2023-03-06T20:53:18.055Z,78.88
2023-03-06T20:56:25.494Z,79.23
2023-03-06T20:59:28.329Z,79.55
2023-03-06T21:02:31.663Z,80.39
2023-03-06T21:05:34.712Z,80.88
2023-03-06T21:08:37.863Z,80.98
2023-03-06T21:11:41.068Z,81.64
2023-03-06T21:14:44.318Z,81.52
2023-03-06T21:17:46.715Z,81.64
2023-03-06T21:20:49.480Z,81.81
2023-03-06T21:23:53.140Z,82.08
2023-03-06T21:26:55.794Z,81.87
2023-03-06T21:29:58.408Z,81.19
2023-03-06T21:33:00.930Z,80.99
2023-03-06T21:36:03.942Z,80.86
2023-03-06T21:39:06.514Z,81.09
2023-03-06T21:42:08.944Z,81.56
2023-03-06T21:45:12.089Z,80.87
2023-03-06T21:48:15.828Z,80.59
2023-03-06T21:51:20.915Z,80.67
2023-03-06T21:54:23.503Z,79.90
2023-03-06T21:57:25.991Z,80.38
2023-03-06T22:00:28.669Z,80.01
2023-03-06T22:03:31.107Z,80.60
2023-03-06T22:06:33.675Z,80.32
2023-03-06T22:09:37.316Z,81.12
2023-03-06T22:12:40.239Z,80.91
2023-03-06T22:15:53.166Z,81.33
2023-03-06T22:18:56.940Z,80.96
2023-03-06T22:21:59.744Z,81.09
2023-03-06T22:25:02.489Z,81.37
2023-03-06T22:28:05.430Z,81.14
2023-03-06T22:31:19.449Z,81.12
2023-03-06T22:34:21.930Z,80.55
2023-03-06T22:37:24.378Z,80.47
2023-03-06T22:40:26.904Z,80.99
2023-03-06T22:43:30.077Z,80.77
2023-03-06T22:46:33.005Z,80.34
2023-03-06T22:49:35.460Z,80.79
2023-03-06T22:52:38.096Z,80.63
2023-03-06T22:55:40.650Z,81.22
2023-03-06T22:58:44.845Z,81.42
2023-03-06T23:01:47.388Z,81.45
2023-03-06T23:04:53.459Z,81.33
2023-03-06T23:07:56.225Z,81.50
2023-03-06T23:10:58.650Z,81.98
2023-03-06T23:14:20.085Z,81.00
2023-03-06T23:17:41.608Z,80.87
2023-03-06T23:21:11.437Z,81.46
2023-03-06T23:24:36.780Z,82.65
2023-03-06T23:27:39.320Z,82.71
2023-03-06T23:30:42.235Z,83.14
2023-03-06T23:33:45.453Z,83.33
2023-03-06T23:36:48.540Z,83.44
2023-03-06T23:39:51.056Z,83.36
2023-03-06T23:42:53.660Z,83.58
2023-03-06T23:45:56.492Z,83.62
2023-03-06T23:48:59.110Z,83.90
2023-03-06T23:52:01.623Z,83.63
2023-03-06T23:55:05.596Z,83.68
2023-03-06T23:58:08.298Z,83.60
